createdAt,value
2017-12-26T00:02:13.711Z,17.93
2017-12-26T00:08:17.339Z,11.97
2017-12-26T00:14:20.943Z,12.70
2017-12-26T00:20:24.671Z,13.47
2017-12-26T00:26:28.152Z,14.63
2017-12-26T00:32:32.609Z,11.03
2017-12-26T00:38:36.246Z,13.10
2017-12-26T00:44:40.527Z,16.87
2017-12-26T00:50:44.064Z,14.73
2017-12-26T00:56:48.374Z,15.80
2017-12-26T01:02:52.479Z,13.73
2017-12-26T01:08:56.773Z,13.83
2017-12-26T01:15:01.187Z,11.97
2017-12-26T01:21:04.755Z,13.80
2017-12-26T01:27:08.447Z,12.17
2017-12-26T01:33:12.100Z,16.13
2017-12-26T01:39:15.687Z,13.57
2017-12-26T01:45:19.982Z,13.27
2017-12-26T01:51:24.067Z,15.80
2017-12-26T01:57:27.951Z,15.20
2017-12-26T02:03:32.389Z,17.63
2017-12-26T02:09:36.009Z,17.87
2017-12-26T02:15:39.475Z,17.03
2017-12-26T02:21:43.767Z,17.53
2017-12-26T02:27:47.263Z,17.97
2017-12-26T02:33:51.158Z,14.40
2017-12-26T02:39:55.732Z,17.00
2017-12-26T02:46:00.294Z,14.83
2017-12-26T02:52:04.164Z,15.03
2017-12-26T02:58:08.569Z,15.83
2017-12-26T03:04:12.843Z,14.90
2017-12-26T03:10:16.395Z,16.20
2017-12-26T03:16:20.428Z,15.63
2017-12-26T03:22:24.107Z,16.87
2017-12-26T03:28:28.383Z,17.03
2017-12-26T03:34:32.627Z,15.90
2017-12-26T03:40:36.164Z,18.77
2017-12-26T03:46:39.735Z,20.60
2017-12-26T03:52:43.228Z,18.27
2017-12-26T03:58:47.479Z,17.97
2017-12-26T04:04:52.301Z,20.43
2017-12-26T04:10:55.841Z,18.13
2017-12-26T04:16:59.413Z,17.03
2017-12-26T04:23:02.881Z,18.63
2017-12-26T04:29:06.338Z,19.80
2017-12-26T04:35:09.838Z,24.30
2017-12-26T04:41:14.011Z,19.27
2017-12-26T04:47:18.272Z,22.40
2017-12-26T04:53:22.171Z,25.00
2017-12-26T04:59:25.752Z,20.10
2017-12-26T05:05:29.298Z,21.70
2017-12-26T05:11:32.830Z,21.60
2017-12-26T05:17:36.313Z,22.90
2017-12-26T05:23:40.077Z,21.13
2017-12-26T05:29:43.616Z,24.47
2017-12-26T05:35:47.325Z,24.60
2017-12-26T05:41:51.101Z,20.97
2017-12-26T05:47:54.824Z,22.40
2017-12-26T05:53:58.609Z,22.23
2017-12-26T06:00:02.121Z,21.93
2017-12-26T06:06:05.670Z,25.17
2017-12-26T06:12:09.218Z,24.43
2017-12-26T06:18:12.741Z,26.13
2017-12-26T06:24:16.406Z,20.83
2017-12-26T06:30:20.873Z,25.73
2017-12-26T06:36:25.178Z,24.10
2017-12-26T06:42:28.768Z,29.40
2017-12-26T06:48:32.248Z,30.13
2017-12-26T06:54:35.737Z,25.30
2017-12-26T07:00:39.264Z,27.57
2017-12-26T07:06:42.742Z,25.17
2017-12-26T07:12:46.271Z,23.67
2017-12-26T07:18:50.631Z,23.67
2017-12-26T07:24:54.816Z,23.87
2017-12-26T07:30:58.350Z,24.47
2017-12-26T07:37:01.998Z,19.63
2017-12-26T07:43:05.512Z,26.10
2017-12-26T07:49:08.984Z,19.17
2017-12-26T07:55:12.658Z,19.73
2017-12-26T08:01:16.128Z,19.00
2017-12-26T08:07:19.777Z,21.30
2017-12-26T08:13:23.543Z,20.40
2017-12-26T08:19:27.851Z,18.23
2017-12-26T08:25:32.105Z,17.60
2017-12-26T08:31:36.359Z,14.60
2017-12-26T08:37:39.904Z,13.97
2017-12-26T08:43:43.382Z,22.40
2017-12-26T08:49:47.324Z,47.53
2017-12-26T08:55:51.222Z,11.60
2017-12-26T09:01:55.263Z,11.20
2017-12-26T09:07:58.765Z,9.27
2017-12-26T09:14:02.379Z,11.47
2017-12-26T09:20:05.890Z,11.93
2017-12-26T09:26:09.509Z,8.23
2017-12-26T09:32:13.753Z,7.03
2017-12-26T09:38:17.250Z,7.17
2017-12-26T09:44:20.841Z,6.40
2017-12-26T09:50:24.435Z,9.50
2017-12-26T09:56:27.981Z,9.30
2017-12-26T10:02:31.502Z,9.53
2017-12-26T10:08:35.041Z,8.87
2017-12-26T10:14:38.690Z,10.00
2017-12-26T10:20:43.175Z,8.80
2017-12-26T10:26:46.750Z,9.43
2017-12-26T10:32:50.388Z,13.23
2017-12-26T10:38:53.961Z,5.80
2017-12-26T10:44:57.540Z,9.83
2017-12-26T10:51:01.075Z,6.43
2017-12-26T10:57:04.619Z,18.73
2017-12-26T11:03:08.235Z,6.00
2017-12-26T11:09:12.695Z,13.37
2017-12-26T11:15:16.523Z,7.77
2017-12-26T11:21:20.069Z,4.93
2017-12-26T11:27:24.218Z,6.60
2017-12-26T11:33:28.231Z,4.10
2017-12-26T11:39:31.724Z,2.77
2017-12-26T11:45:36.028Z,5.97
2017-12-26T11:51:39.520Z,3.00
2017-12-26T11:57:43.141Z,4.10
2017-12-26T12:03:46.823Z,2.40
2017-12-26T12:09:50.650Z,1.70
2017-12-26T12:15:54.148Z,4.47
2017-12-26T12:21:57.644Z,3.03
2017-12-26T12:28:01.144Z,7.27
2017-12-26T12:34:04.703Z,2.43
2017-12-26T12:40:08.276Z,1.87
2017-12-26T12:46:11.853Z,2.10
2017-12-26T12:52:15.720Z,2.70
2017-12-26T12:58:20.094Z,2.30
2017-12-26T13:04:23.922Z,2.33
2017-12-26T13:10:28.181Z,1.60
2017-12-26T13:16:31.682Z,2.73
2017-12-26T13:22:35.943Z,3.80
2017-12-26T13:28:40.246Z,4.50
2017-12-26T13:34:43.929Z,7.87
2017-12-26T13:40:47.853Z,2.00
2017-12-26T13:46:52.224Z,3.37
2017-12-26T13:52:56.763Z,3.63
2017-12-26T13:59:00.255Z,1.20
2017-12-26T14:05:04.539Z,1.17
2017-12-26T14:11:08.018Z,1.20
2017-12-26T14:17:11.495Z,1.10
2017-12-26T14:23:15.003Z,2.30
2017-12-26T14:29:18.609Z,1.40
2017-12-26T14:35:22.283Z,2.27
2017-12-26T14:41:26.089Z,2.20
2017-12-26T14:47:29.579Z,1.20
2017-12-26T14:53:33.300Z,1.47
2017-12-26T14:59:36.860Z,3.33
2017-12-26T15:05:40.393Z,1.63
2017-12-26T15:11:43.868Z,3.00
2017-12-26T15:17:47.537Z,1.30
2017-12-26T15:23:51.151Z,3.03
2017-12-26T15:29:55.488Z,1.80
2017-12-26T15:35:58.968Z,3.20
2017-12-26T15:42:02.693Z,1.67
2017-12-26T15:48:06.316Z,2.73
2017-12-26T15:54:10.244Z,6.67
2017-12-26T16:00:13.708Z,4.30
2017-12-26T16:06:18.249Z,2.37
2017-12-26T16:12:22.299Z,3.17
2017-12-26T16:18:26.055Z,8.30
2017-12-26T16:24:29.905Z,5.80
2017-12-26T16:30:33.454Z,4.50
2017-12-26T16:36:37.056Z,3.67
2017-12-26T16:42:40.809Z,2.10
2017-12-26T16:48:44.402Z,3.63
2017-12-26T16:54:48.769Z,2.30
2017-12-26T17:00:53.387Z,3.07
2017-12-26T17:06:57.058Z,1.60
2017-12-26T17:13:00.582Z,4.40
2017-12-26T17:19:04.193Z,1.83
2017-12-26T17:25:07.737Z,2.07
2017-12-26T17:31:11.305Z,2.00
2017-12-26T17:37:14.798Z,4.33
2017-12-26T17:43:19.059Z,2.80
2017-12-26T17:49:22.559Z,3.70
2017-12-26T17:55:27.053Z,6.10
2017-12-26T18:01:30.532Z,4.77
2017-12-26T18:07:34.269Z,3.33
2017-12-26T18:13:37.729Z,2.33
2017-12-26T18:19:41.299Z,4.87
2017-12-26T18:25:44.762Z,1.90
2017-12-26T18:31:49.214Z,4.57
2017-12-26T18:37:53.755Z,3.33
2017-12-26T18:43:58.104Z,2.20
2017-12-26T18:50:02.560Z,2.63
2017-12-26T18:56:06.142Z,3.83
2017-12-26T19:02:10.384Z,4.13
2017-12-26T19:08:13.910Z,3.53
2017-12-26T19:14:17.633Z,3.83
2017-12-26T19:20:21.548Z,5.93
2017-12-26T19:26:25.533Z,6.07
2017-12-26T19:32:29.140Z,4.57
2017-12-26T19:38:32.755Z,5.57
2017-12-26T19:44:36.260Z,1.90
2017-12-26T19:50:39.865Z,3.07
2017-12-26T19:56:44.403Z,2.70
2017-12-26T20:02:47.971Z,2.27
2017-12-26T20:08:51.940Z,2.60
2017-12-26T20:14:56.038Z,2.10
2017-12-26T20:20:59.552Z,2.57
2017-12-26T20:27:03.060Z,4.37
2017-12-26T20:33:07.694Z,1.70
2017-12-26T20:39:11.183Z,5.03
2017-12-26T20:45:15.413Z,2.30
2017-12-26T20:51:19.005Z,3.10
2017-12-26T20:57:22.938Z,1.73
2017-12-26T21:03:26.582Z,2.20
2017-12-26T21:09:30.049Z,2.27
2017-12-26T21:15:33.549Z,2.30
2017-12-26T21:21:37.894Z,3.93
2017-12-26T21:27:41.357Z,4.70
2017-12-26T21:33:45.675Z,2.33
2017-12-26T21:39:49.125Z,3.27
2017-12-26T21:45:53.060Z,3.33
2017-12-26T21:51:56.751Z,4.50
2017-12-26T21:58:00.239Z,7.60
2017-12-26T22:04:03.696Z,5.37
2017-12-26T22:10:07.248Z,24.83
2017-12-26T22:16:10.795Z,3.90
2017-12-26T22:22:14.291Z,3.63
2017-12-26T22:28:18.628Z,6.40
2017-12-26T22:34:22.714Z,3.43
2017-12-26T22:40:26.493Z,3.83
2017-12-26T22:46:30.032Z,7.03
2017-12-26T22:52:33.505Z,3.97
2017-12-26T22:58:37.211Z,2.63
2017-12-26T23:04:40.724Z,9.20
2017-12-26T23:10:44.220Z,4.03
2017-12-26T23:16:53.161Z,3.23
2017-12-26T23:23:02.434Z,3.67
2017-12-26T23:29:12.200Z,4.13
2017-12-26T23:35:22.011Z,3.80
2017-12-26T23:41:31.790Z,1.93
2017-12-26T23:47:40.861Z,6.40
2017-12-26T23:53:49.854Z,2.37
2017-12-26T23:59:59.163Z,3.10
